メインページ
METAR-TAF:

METAR-TAF

空港 :

Cheboygan County Airport

Cheboygan, ミシガン州, アメリカ合衆国

緯度: 45-39-13N, 経度: 084-31-09W, 海抜: 195m

現時点の気象観測

当レポートは14分前の17:39(UTC)に作成
北西の風 9kt
気温 25°C
湿度 54%
気圧 1015 hPa
視程: 16.1km
晴天

METAR: KSLH 211739Z AUTO 32009KT 10SM CLR 25/15 A2996 RMK AO2 T02450153

時間: 13:53 (17:53 UTC)


TAF: 見つかりません

4,000以上の空港の気象観測と天気予報(METAR報とTAF報)

利用可能な観測所は地図上に黄色い丸と赤い丸で示す。

丸の上にカーソルを重ねると観測所名を参照できる。

次にクリックすると気象観測と天気予報を参照できる。

マップの切り替え:黒色「×」印の緑ボタンをクリックして拡大、「-」印の緑ボタンをクリックして縮小、緑色の三角印をクリックして隣りの地図に切り替え


METAR-TAF: